Time;durP1;ratioP1;P1;durP2;ratioP2;P2;SDS_P1;SDS_P2;PMS_P1;PMS_P2;Temp;Humidity;BMP_temperature;BMP_pressure;BME280_temperature;BME280_humidity;BME280_pressure;Samples;Min_cycle;Max_cycle;Signal;HPM_P1;HPM_P2
2022/10/24 00:00:15;;;;;;;7.40;2.10;;;;;;;18.38;69.54;100264.94;4909731;29;20728;-72
2022/10/24 00:02:41;;;;;;;8.75;2.38;;;;;;;18.17;70.33;100267.31;4901254;28;20234;-73
2022/10/24 00:05:07;;;;;;;8.40;2.30;;;;;;;18.01;71.80;100260.69;4907736;29;20035;-72
2022/10/24 00:07:32;;;;;;;5.55;2.22;;;;;;;18.40;70.63;100276.34;4910651;29;20550;-72
2022/10/24 00:09:57;;;;;;;9.45;2.30;;;;;;;18.45;70.40;100269.16;4884568;29;20043;-73
2022/10/24 00:12:23;;;;;;;9.35;2.47;;;;;;;18.36;70.92;100275.53;4906160;29;20034;-73
2022/10/24 00:14:48;;;;;;;10.65;2.63;;;;;;;18.51;70.52;100267.22;4910053;28;20189;-71
2022/10/24 00:17:14;;;;;;;10.73;2.45;;;;;;;18.65;70.31;100277.41;4907264;29;20043;-73
2022/10/24 00:19:39;;;;;;;4.00;2.15;;;;;;;18.72;70.22;100263.13;4911690;28;20035;-72
2022/10/24 00:22:05;;;;;;;6.88;2.35;;;;;;;18.71;69.97;100255.25;4903639;28;20578;-72
2022/10/24 00:24:30;;;;;;;7.00;2.53;;;;;;;18.82;69.59;100261.94;4907213;29;20043;-72
2022/10/24 00:26:56;;;;;;;5.53;2.40;;;;;;;18.86;69.44;100260.06;4909920;28;20055;-72
2022/10/24 00:29:21;;;;;;;5.82;2.33;;;;;;;18.82;69.20;100258.41;4911942;29;20492;-72
2022/10/24 00:31:47;;;;;;;6.00;2.22;;;;;;;18.86;69.02;100262.69;4912779;29;20687;-72
2022/10/24 00:34:13;;;;;;;6.30;2.30;;;;;;;18.82;69.25;100256.66;4905287;29;20759;-73
2022/10/24 00:36:39;;;;;;;6.63;2.15;;;;;;;18.98;68.70;100249.97;4908304;29;20678;-72
2022/10/24 00:39:04;;;;;;;9.10;2.30;;;;;;;18.98;68.81;100249.09;4908359;29;20051;-72
2022/10/24 00:41:33;;;;;;;8.48;2.20;;;;;;;19.11;68.36;100249.59;4912492;29;20031;-74
2022/10/24 00:44:28;;;;;;;9.95;2.30;;;;;;;19.11;68.23;100239.03;4912191;29;20118;-72
2022/10/24 00:47:22;;;;;;;8.75;2.05;;;;;;;19.17;67.77;100242.34;4907217;29;20849;-72
2022/10/24 00:50:23;;;;;;;6.95;2.00;;;;;;;19.04;66.82;100244.50;4911388;29;20408;-73
2022/10/24 00:52:49;;;;;;;7.03;1.95;;;;;;;19.30;66.50;100240.16;4907431;29;20028;-72
2022/10/24 00:55:14;;;;;;;6.78;2.03;;;;;;;19.37;65.85;100239.94;4909213;29;20483;-72
2022/10/24 00:57:53;;;;;;;9.50;2.20;;;;;;;19.49;65.34;100232.53;4903485;28;20463;-73
2022/10/24 01:00:23;;;;;;;8.48;1.90;;;;;;;19.48;65.24;100228.16;4908222;29;20067;-73
2022/10/24 01:02:48;;;;;;;7.00;1.80;;;;;;;19.34;65.49;100233.88;4908333;28;20069;-72
2022/10/24 01:05:15;;;;;;;8.02;1.90;;;;;;;19.34;65.03;100232.09;4911576;29;20475;-72
2022/10/24 01:07:46;;;;;;;10.15;1.90;;;;;;;19.23;64.92;100221.00;4910018;29;20036;-74
2022/10/24 01:10:14;;;;;;;9.15;1.90;;;;;;;19.42;64.78;100224.78;4905659;28;20079;-73
2022/10/24 01:13:10;;;;;;;11.38;2.03;;;;;;;19.45;64.03;100223.81;4906300;29;20028;-73
2022/10/24 01:15:52;;;;;;;8.07;1.88;;;;;;;19.31;64.85;100213.69;4904251;28;20618;-73
2022/10/24 01:18:31;;;;;;;8.07;1.88;;;;;;;19.62;63.58;100218.00;4912765;28;20036;-72
2022/10/24 01:21:02;;;;;;;6.15;1.95;;;;;;;19.29;64.04;100212.88;4903932;28;20053;-73
2022/10/24 01:23:31;;;;;;;7.03;2.17;;;;;;;19.60;63.11;100209.25;4905457;29;20056;-73
2022/10/24 01:26:18;;;;;;;6.47;1.60;;;;;;;19.56;63.65;100210.28;4912174;29;20114;-73
2022/10/24 01:29:07;;;;;;;5.90;1.88;;;;;;;19.73;62.49;100210.56;4908529;29;21774;-71
2022/10/24 01:31:47;;;;;;;10.32;1.80;;;;;;;19.64;63.10;100202.94;4909347;29;20263;-72
2022/10/24 01:34:22;;;;;;;9.15;1.52;;;;;;;19.52;62.97;100206.00;4902903;28;20039;-71
2022/10/24 01:36:59;;;;;;;5.55;1.65;;;;;;;19.57;62.32;100204.06;4921495;28;20028;-73
2022/10/24 01:39:30;;;;;;;9.63;1.70;;;;;;;19.81;62.08;100196.16;4901451;28;20079;-72
2022/10/24 01:41:57;;;;;;;5.13;1.60;;;;;;;19.78;61.99;100192.75;4907902;29;20055;-73
2022/10/24 01:44:29;;;;;;;10.52;1.60;;;;;;;19.82;61.31;100194.38;4909989;28;20439;-72
2022/10/24 01:47:01;;;;;;;6.90;1.92;;;;;;;19.44;62.03;100193.00;4915440;28;20027;-73
2022/10/24 01:49:32;;;;;;;9.85;1.90;;;;;;;19.52;61.86;100193.63;4910268;29;20086;-72
2022/10/24 01:52:02;;;;;;;6.57;2.22;;;;;;;19.29;62.71;100189.09;4904799;28;20039;-72
2022/10/24 01:54:29;;;;;;;6.65;1.67;;;;;;;19.13;62.71;100181.72;4909155;29;20578;-72
2022/10/24 01:56:55;;;;;;;6.60;1.48;;;;;;;19.10;63.17;100187.97;4910836;28;20059;-73
2022/10/24 01:59:29;;;;;;;6.13;1.67;;;;;;;19.27;62.26;100188.25;4911857;29;20100;-72
2022/10/24 02:02:00;;;;;;;5.63;1.50;;;;;;;19.01;62.36;100189.13;4910504;29;20115;-74
2022/10/24 02:04:30;;;;;;;5.97;1.50;;;;;;;18.99;62.59;100185.66;4909051;28;20118;-72
2022/10/24 02:07:01;;;;;;;5.03;1.80;;;;;;;19.08;61.50;100181.00;4916165;29;20027;-72
2022/10/24 02:09:27;;;;;;;6.15;1.80;;;;;;;18.99;62.00;100180.38;4926142;28;20464;-72
2022/10/24 02:11:56;;;;;;;6.35;1.75;;;;;;;19.08;61.57;100189.81;4911835;29;20031;-72
2022/10/24 02:14:32;;;;;;;8.55;1.92;;;;;;;18.99;61.80;100196.22;4915134;29;20094;-73
2022/10/24 02:17:00;;;;;;;10.65;2.08;;;;;;;19.10;61.39;100187.97;4912668;29;20666;-73
2022/10/24 02:19:26;;;;;;;8.77;1.60;;;;;;;19.34;60.47;100186.28;4915347;29;20051;-73
2022/10/24 02:22:00;;;;;;;6.80;1.70;;;;;;;18.91;61.41;100177.13;4913565;28;20497;-72
2022/10/24 02:24:35;;;;;;;5.88;1.85;;;;;;;19.24;60.28;100182.22;4910728;29;20043;-72
2022/10/24 02:27:11;;;;;;;7.20;1.88;;;;;;;19.20;60.61;100183.25;4911343;29;20057;-72
2022/10/24 02:29:46;;;;;;;8.15;1.80;;;;;;;19.05;60.84;100179.31;4913989;29;20099;-71
2022/10/24 02:32:18;;;;;;;8.90;1.90;;;;;;;18.98;61.21;100183.06;4912841;29;20031;-73
2022/10/24 02:34:44;;;;;;;5.03;1.67;;;;;;;19.32;60.33;100188.13;4908735;28;20047;-73
2022/10/24 02:37:12;;;;;;;8.95;2.03;;;;;;;19.31;60.24;100181.13;4915126;29;20036;-72
2022/10/24 02:39:40;;;;;;;5.78;1.80;;;;;;;19.16;60.59;100176.31;4908898;28;20499;-72
2022/10/24 02:42:07;;;;;;;7.35;1.90;;;;;;;19.20;59.88;100175.31;4912764;29;20027;-72
2022/10/24 02:44:33;;;;;;;7.43;1.80;;;;;;;19.32;59.50;100169.63;4908285;28;20057;-72
2022/10/24 02:47:03;;;;;;;11.60;2.00;;;;;;;19.15;60.24;100171.97;4912280;29;20059;-72
2022/10/24 02:49:28;;;;;;;4.75;1.70;;;;;;;19.13;59.74;100174.66;4914932;29;20046;-73
2022/10/24 02:51:54;;;;;;;8.88;2.00;;;;;;;18.95;60.44;100178.75;4903556;29;20039;-72
2022/10/24 02:54:20;;;;;;;9.52;1.98;;;;;;;19.01;59.98;100185.63;4910772;29;20153;-73
2022/10/24 02:56:51;;;;;;;7.07;1.70;;;;;;;19.11;59.89;100163.28;4904290;28;20547;-72
2022/10/24 02:59:16;;;;;;;5.90;1.88;;;;;;;18.89;60.58;100170.16;4911458;29;20032;-72
2022/10/24 03:01:41;;;;;;;7.65;1.80;;;;;;;19.11;59.93;100168.56;4909955;29;20467;-73
2022/10/24 03:04:07;;;;;;;6.25;1.88;;;;;;;18.78;60.37;100154.69;4923792;28;20118;-74
2022/10/24 03:06:32;;;;;;;6.10;1.80;;;;;;;19.11;59.72;100165.03;4924228;28;20024;-73
2022/10/24 03:08:57;;;;;;;6.03;1.85;;;;;;;19.10;59.24;100163.31;4911552;28;20851;-72
2022/10/24 03:11:23;;;;;;;5.00;1.83;;;;;;;18.89;60.04;100162.25;4914626;29;20143;-73
2022/10/24 03:13:48;;;;;;;4.70;1.85;;;;;;;19.25;59.16;100150.47;4913225;29;20058;-73
2022/10/24 03:16:14;;;;;;;7.38;1.60;;;;;;;19.09;59.27;100166.91;4909947;28;20044;-73
2022/10/24 03:18:39;;;;;;;5.50;1.60;;;;;;;19.13;59.39;100163.22;4908084;29;20031;-72
2022/10/24 03:21:05;;;;;;;5.53;1.50;;;;;;;18.92;59.55;100164.78;4904543;28;20142;-72
2022/10/24 03:23:30;;;;;;;4.97;1.55;;;;;;;18.84;59.11;100162.41;4911576;29;20031;-73
2022/10/24 03:25:57;;;;;;;8.02;1.80;;;;;;;18.94;58.90;100166.47;4913813;29;20424;-73
2022/10/24 03:28:23;;;;;;;5.65;1.40;;;;;;;18.52;59.29;100146.66;4910871;29;20534;-72
2022/10/24 03:30:49;;;;;;;7.80;1.60;;;;;;;18.91;58.25;100157.75;4910778;29;20024;-72
2022/10/24 03:33:15;;;;;;;6.82;1.45;;;;;;;18.75;57.64;100157.38;4904909;29;20065;-73
2022/10/24 03:35:40;;;;;;;10.68;1.60;;;;;;;18.81;57.06;100154.56;4915155;28;20546;-72
2022/10/24 03:38:08;;;;;;;4.97;1.40;;;;;;;18.65;57.43;100158.59;4910904;29;20034;-73
2022/10/24 03:40:38;;;;;;;9.95;1.42;;;;;;;18.80;56.67;100157.25;4904300;28;20043;-71
2022/10/24 03:43:03;;;;;;;9.00;1.42;;;;;;;18.47;57.57;100170.56;4913908;29;20148;-73
2022/10/24 03:45:29;;;;;;;8.65;1.35;;;;;;;18.90;56.43;100156.06;4910180;29;20118;-73
2022/10/24 03:47:54;;;;;;;7.72;1.40;;;;;;;19.11;55.51;100157.97;4912390;28;20034;-73
2022/10/24 03:50:20;;;;;;;7.95;1.27;;;;;;;19.04;55.77;100154.69;4909416;29;20027;-73
2022/10/24 03:52:46;;;;;;;6.70;1.30;;;;;;;19.31;55.37;100155.56;4908767;28;20046;-73
2022/10/24 03:55:11;;;;;;;6.65;1.48;;;;;;;19.30;55.11;100143.25;4913249;28;20042;-72
2022/10/24 03:57:37;;;;;;;6.68;1.45;;;;;;;19.22;55.75;100157.63;4906782;28;20078;-72
2022/10/24 04:00:04;;;;;;;8.05;1.25;;;;;;;19.25;55.75;100160.19;4907562;29;20492;-74
2022/10/24 04:02:30;;;;;;;8.43;1.45;;;;;;;18.93;56.74;100145.38;4900020;28;20393;-72
2022/10/24 04:04:55;;;;;;;7.22;1.30;;;;;;;19.36;55.46;100155.38;4915454;29;20283;-73
2022/10/24 04:07:21;;;;;;;8.40;1.67;;;;;;;19.33;55.65;100158.16;4912048;29;20036;-73
2022/10/24 04:09:46;;;;;;;12.38;1.60;;;;;;;19.28;55.90;100146.84;4906568;28;20051;-74
2022/10/24 04:12:11;;;;;;;7.13;1.40;;;;;;;19.43;55.58;100164.84;4912628;29;20042;-74
2022/10/24 04:14:37;;;;;;;6.60;1.50;;;;;;;19.52;55.39;100150.50;4905750;29;20024;-72
2022/10/24 04:17:02;;;;;;;5.20;1.42;;;;;;;19.25;56.42;100147.84;4913096;29;20110;-72
2022/10/24 04:19:28;;;;;;;9.02;1.50;;;;;;;19.13;56.38;100148.25;4915389;28;20023;-72
2022/10/24 04:21:53;;;;;;;12.85;1.30;;;;;;;19.40;55.75;100160.50;4907580;28;20456;-73
2022/10/24 04:24:18;;;;;;;6.53;1.40;;;;;;;19.11;56.35;100152.69;4914628;29;20023;-74
2022/10/24 04:26:44;;;;;;;8.45;1.25;;;;;;;19.08;56.75;100146.66;4907450;28;20483;-73
2022/10/24 04:29:09;;;;;;;8.75;1.23;;;;;;;19.04;56.98;100145.88;4914064;29;20039;-73
2022/10/24 04:31:35;;;;;;;10.18;1.67;;;;;;;19.16;56.95;100144.63;4913922;28;20131;-71
2022/10/24 04:34:00;;;;;;;7.65;1.23;;;;;;;19.00;57.47;100152.19;4903992;28;20771;-73
2022/10/24 04:36:26;;;;;;;7.82;1.30;;;;;;;19.03;57.39;100155.59;4909078;29;20114;-74
2022/10/24 04:38:51;;;;;;;7.95;1.27;;;;;;;19.01;57.55;100135.44;4910503;28;20047;-72
2022/10/24 04:41:17;;;;;;;3.55;1.00;;;;;;;19.18;56.87;100135.72;4910396;29;20016;-73
2022/10/24 04:43:42;;;;;;;9.50;1.50;;;;;;;19.25;56.89;100124.03;4913414;29;20119;-73
2022/10/24 04:46:07;;;;;;;7.50;1.33;;;;;;;19.30;56.32;100131.81;4906070;28;20313;-74
2022/10/24 04:48:33;;;;;;;8.93;1.33;;;;;;;19.19;56.50;100118.09;4909689;29;20047;-74
2022/10/24 04:50:59;;;;;;;10.15;1.77;;;;;;;18.95;56.90;100133.00;4905938;28;20051;-73
2022/10/24 04:53:24;;;;;;;7.05;1.10;;;;;;;19.29;56.50;100127.44;4909604;29;20016;-73
2022/10/24 04:55:49;;;;;;;6.88;1.35;;;;;;;19.12;56.46;100125.38;4920685;29;20039;-72
2022/10/24 04:58:15;;;;;;;7.95;1.50;;;;;;;19.54;55.57;100119.56;4922182;29;20139;-72
2022/10/24 05:00:45;;;;;;;6.10;1.23;;;;;;;19.63;55.51;100129.81;4916547;29;20049;-74
2022/10/24 05:03:11;;;;;;;6.93;1.20;;;;;;;19.51;56.02;100132.91;4921987;28;20043;-74
2022/10/24 05:05:36;;;;;;;7.95;1.33;;;;;;;19.28;56.23;100125.69;4923380;29;20028;-72
2022/10/24 05:08:01;;;;;;;8.15;1.30;;;;;;;19.20;56.96;100138.34;4917612;29;20126;-73
2022/10/24 05:10:27;;;;;;;7.80;1.60;;;;;;;19.05;56.97;100124.72;4907249;28;20569;-73
2022/10/24 05:12:52;;;;;;;10.73;1.65;;;;;;;19.32;56.09;100133.50;4915956;29;20044;-73
2022/10/24 05:15:18;;;;;;;7.63;1.30;;;;;;;19.17;56.41;100122.56;4915052;28;20106;-74
2022/10/24 05:17:43;;;;;;;5.35;1.15;;;;;;;19.35;55.89;100133.38;4929060;28;20171;-72
2022/10/24 05:20:09;;;;;;;6.95;1.10;;;;;;;18.97;56.77;100137.28;4924203;28;20020;-72
2022/10/24 05:22:34;;;;;;;8.43;1.48;;;;;;;19.07;57.09;100118.50;4903907;28;20051;-74
2022/10/24 05:25:00;;;;;;;5.80;1.23;;;;;;;19.29;56.20;100130.06;4910869;29;20032;-72
2022/10/24 05:27:25;;;;;;;11.35;1.50;;;;;;;19.26;56.10;100125.78;4906662;28;20126;-73
2022/10/24 05:29:51;;;;;;;6.47;1.27;;;;;;;19.02;56.89;100147.72;4909868;29;20395;-73
2022/10/24 05:32:18;;;;;;;9.38;1.50;;;;;;;19.13;56.73;100147.38;4911176;29;20078;-74
2022/10/24 05:34:44;;;;;;;8.30;1.10;;;;;;;19.04;56.86;100141.47;4904757;29;21083;-74
2022/10/24 05:37:09;;;;;;;11.98;1.30;;;;;;;19.00;56.87;100136.34;4911006;29;20032;-71
2022/10/24 05:39:35;;;;;;;8.50;1.23;;;;;;;18.75;57.73;100138.91;4902985;28;20053;-72
2022/10/24 05:42:00;;;;;;;11.88;1.40;;;;;;;18.84;57.45;100141.28;4910718;28;20753;-73
2022/10/24 05:44:26;;;;;;;6.68;1.15;;;;;;;18.91;57.59;100126.94;4902411;29;21077;-71
2022/10/24 05:46:51;;;;;;;5.72;1.17;;;;;;;18.91;57.51;100139.28;4916912;29;20040;-72
2022/10/24 05:49:20;;;;;;;6.57;1.15;;;;;;;18.88;57.78;100127.03;4913516;29;20055;-72
2022/10/24 05:51:45;;;;;;;9.93;1.45;;;;;;;18.89;57.80;100136.69;4903370;29;20056;-72
2022/10/24 05:54:11;;;;;;;5.32;1.10;;;;;;;19.13;57.35;100140.31;4912583;29;20436;-72
2022/10/24 05:56:36;;;;;;;7.68;1.30;;;;;;;18.96;57.87;100143.53;4905958;28;20034;-73
2022/10/24 05:59:02;;;;;;;7.22;1.23;;;;;;;19.32;56.77;100137.91;4911466;29;20031;-72
2022/10/24 06:01:28;;;;;;;11.68;1.50;;;;;;;19.32;57.14;100133.50;4913767;29;20561;-72
2022/10/24 06:03:54;;;;;;;10.48;1.38;;;;;;;19.22;57.32;100137.34;4907658;28;20131;-73
2022/10/24 06:06:19;;;;;;;11.07;1.50;;;;;;;19.17;57.28;100133.13;4912744;29;20111;-73
2022/10/24 06:08:45;;;;;;;5.15;1.20;;;;;;;18.71;58.43;100139.94;4909027;28;20040;-72
2022/10/24 06:11:11;;;;;;;7.65;1.42;;;;;;;19.29;57.01;100151.22;4910896;29;20451;-74
2022/10/24 06:13:37;;;;;;;8.25;1.50;;;;;;;18.95;57.54;100149.72;4913089;29;20040;-73
2022/10/24 06:16:05;;;;;;;9.43;1.40;;;;;;;19.09;57.73;100167.72;4906590;28;20502;-73
2022/10/24 06:18:31;;;;;;;8.02;1.20;;;;;;;19.23;56.95;100162.00;4907649;29;20032;-71
2022/10/24 06:21:01;;;;;;;7.30;1.50;;;;;;;19.25;56.92;100171.63;4905432;29;20382;-73
2022/10/24 06:23:26;;;;;;;7.35;1.40;;;;;;;19.39;56.88;100172.00;4908670;29;20028;-73
2022/10/24 06:25:52;;;;;;;9.35;1.45;;;;;;;19.23;57.59;100193.72;4907186;29;20027;-73
2022/10/24 06:28:17;;;;;;;9.15;1.58;;;;;;;19.25;57.72;100199.81;4904338;28;21074;-74
2022/10/24 06:30:43;;;;;;;9.80;1.60;;;;;;;19.09;58.64;100211.81;4896581;28;20043;-72
2022/10/24 06:33:09;;;;;;;8.10;1.35;;;;;;;18.76;61.59;100232.19;4893111;28;20611;-73
2022/10/24 06:35:34;;;;;;;8.10;1.40;;;;;;;18.50;63.61;100222.38;4904306;28;20655;-71
2022/10/24 06:38:00;;;;;;;10.60;1.23;;;;;;;18.42;64.43;100205.91;4909750;28;20764;-73
2022/10/24 06:40:25;;;;;;;5.45;1.30;;;;;;;18.57;63.94;100219.56;4901404;29;20055;-73
2022/10/24 06:42:51;;;;;;;6.15;1.13;;;;;;;18.28;65.91;100221.28;4905242;29;20505;-73
2022/10/24 06:45:18;;;;;;;8.63;1.40;;;;;;;18.19;66.13;100211.81;4907952;28;20052;-73
2022/10/24 06:47:43;;;;;;;6.00;1.20;;;;;;;17.78;66.33;100218.25;4910920;29;20031;-71
2022/10/24 06:50:09;;;;;;;6.45;1.20;;;;;;;18.00;64.94;100208.84;4911831;29;20039;-71
2022/10/24 06:52:35;;;;;;;9.02;1.30;;;;;;;17.98;64.52;100223.00;4905032;28;20044;-72
2022/10/24 06:55:01;;;;;;;8.20;1.35;;;;;;;18.36;63.23;100229.84;4907652;29;20082;-73
2022/10/24 06:57:26;;;;;;;6.68;1.20;;;;;;;18.45;63.02;100217.22;4898710;28;20462;-73
2022/10/24 06:59:52;;;;;;;4.93;1.23;;;;;;;18.26;62.54;100239.78;4929642;28;20098;-73
2022/10/24 07:02:18;;;;;;;6.30;1.17;;;;;;;18.75;60.96;100235.75;4905763;29;20116;-73
2022/10/24 07:04:44;;;;;;;9.82;1.42;;;;;;;18.42;61.63;100240.22;4898657;28;20414;-72
2022/10/24 07:07:15;;;;;;;5.70;0.95;;;;;;;18.51;61.18;100261.94;4909173;28;20168;-72
2022/10/24 07:09:40;;;;;;;7.63;1.60;;;;;;;18.36;60.88;100258.88;4919690;28;20535;-73
2022/10/24 07:12:06;;;;;;;10.45;1.35;;;;;;;18.78;60.01;100257.66;4910695;29;20533;-73
2022/10/24 07:14:31;;;;;;;4.95;1.10;;;;;;;18.84;60.12;100269.81;4929094;28;20063;-72
2022/10/24 07:16:57;;;;;;;9.32;1.30;;;;;;;18.52;60.35;100289.19;4918124;29;20059;-72
2022/10/24 07:19:22;;;;;;;5.70;1.10;;;;;;;18.96;59.79;100294.09;4913647;29;20031;-72
2022/10/24 07:21:48;;;;;;;6.50;1.10;;;;;;;18.74;61.17;100305.31;4909694;28;20048;-73
2022/10/24 07:24:13;;;;;;;6.38;1.50;;;;;;;18.75;60.44;100301.75;4927388;28;20044;-74
2022/10/24 07:26:38;;;;;;;7.68;1.27;;;;;;;18.81;60.24;100313.00;4922673;28;20218;-72
2022/10/24 07:29:04;;;;;;;6.82;1.33;;;;;;;18.80;60.00;100310.41;4912017;29;20216;-72
2022/10/24 07:31:32;;;;;;;9.45;1.30;;;;;;;18.97;59.00;100306.34;4906767;29;20428;-73
2022/10/24 07:33:59;;;;;;;6.40;1.20;;;;;;;18.96;59.43;100309.94;4908112;28;20107;-73
2022/10/24 07:36:25;;;;;;;11.60;1.73;;;;;;;19.14;59.01;100326.16;4911011;29;20040;-73
2022/10/24 07:38:55;;;;;;;5.43;1.40;;;;;;;18.85;59.00;100319.94;4911382;28;20063;-73
2022/10/24 07:41:23;;;;;;;9.50;1.67;;;;;;;18.80;59.01;100315.69;4908636;29;20107;-73
2022/10/24 07:43:48;;;;;;;5.93;1.30;;;;;;;18.91;58.71;100327.66;4914356;28;20019;-72
2022/10/24 07:46:16;;;;;;;6.13;1.10;;;;;;;18.99;58.43;100333.59;4908593;28;20058;-74
2022/10/24 07:48:42;;;;;;;11.05;1.52;;;;;;;18.70;59.59;100322.16;4909072;29;20036;-72
2022/10/24 07:51:11;;;;;;;5.68;1.20;;;;;;;18.84;59.18;100334.06;4909115;29;20507;-72
2022/10/24 07:53:37;;;;;;;5.13;1.20;;;;;;;19.23;58.35;100337.28;4914358;29;20038;-73
2022/10/24 07:56:09;;;;;;;5.93;1.20;;;;;;;18.62;59.80;100338.22;4914340;29;20028;-73
2022/10/24 07:58:35;;;;;;;6.07;1.50;;;;;;;18.86;59.42;100355.13;4908320;28;20047;-73
2022/10/24 08:01:14;;;;;;;7.75;1.20;;;;;;;18.89;59.53;100353.28;4926514;28;20123;-73
2022/10/24 08:03:42;;;;;;;5.60;1.30;;;;;;;18.81;59.70;100357.03;4909382;29;20062;-73
2022/10/24 08:06:11;;;;;;;8.05;1.35;;;;;;;19.00;59.13;100353.84;4915341;29;20039;-72
2022/10/24 08:08:36;;;;;;;6.15;1.25;;;;;;;18.89;59.47;100381.47;4907427;28;20027;-73
2022/10/24 08:11:09;;;;;;;5.63;1.10;;;;;;;19.09;59.18;100381.75;4912111;29;20042;-73
2022/10/24 08:13:34;;;;;;;6.22;1.30;;;;;;;19.05;59.86;100390.69;4910200;29;20058;-73
2022/10/24 08:16:01;;;;;;;7.35;1.27;;;;;;;18.93;59.34;100396.31;4917198;28;20478;-73
2022/10/24 08:18:26;;;;;;;8.02;1.38;;;;;;;19.01;60.05;100381.13;4913617;28;20475;-72
2022/10/24 08:20:56;;;;;;;8.60;1.20;;;;;;;19.13;59.20;100387.81;4908028;28;20040;-73
2022/10/24 08:23:22;;;;;;;8.27;1.23;;;;;;;19.19;59.00;100393.78;4901985;29;20502;-72
2022/10/24 08:25:47;;;;;;;8.35;1.48;;;;;;;18.97;59.72;100397.94;4910167;29;20039;-73
2022/10/24 08:28:12;;;;;;;9.13;1.40;;;;;;;18.61;60.94;100391.91;4906453;29;20421;-73
2022/10/24 08:30:38;;;;;;;7.75;1.40;;;;;;;18.51;61.84;100403.59;4905626;29;20771;-72
2022/10/24 08:33:03;;;;;;;9.60;1.60;;;;;;;18.53;61.75;100396.53;4908163;28;20456;-72
2022/10/24 08:35:28;;;;;;;6.78;1.45;;;;;;;18.35;62.71;100408.44;4909909;29;20114;-73
2022/10/24 08:37:53;;;;;;;9.27;1.40;;;;;;;18.40;62.02;100416.22;4910270;29;20019;-71
2022/10/24 08:40:22;;;;;;;7.43;1.30;;;;;;;18.58;61.72;100403.44;4910628;28;20046;-72
2022/10/24 08:42:48;;;;;;;8.10;1.40;;;;;;;18.43;62.12;100419.63;4915325;29;20032;-72
2022/10/24 08:45:24;;;;;;;5.18;1.30;;;;;;;17.96;63.94;100417.31;4899578;29;20056;-73
2022/10/24 08:47:59;;;;;;;;;;;;;;;18.07;63.62;100429.34;4886532;29;20119;-72
2022/10/24 08:50:27;;;;;;;6.03;1.20;;;;;;;18.19;63.14;100423.78;4884393;29;20005;-73
2022/10/24 08:53:06;;;;;;;6.50;1.20;;;;;;;18.12;63.43;100435.38;4892512;29;20040;-71
2022/10/24 08:55:38;;;;;;;6.38;1.30;;;;;;;18.54;62.49;100428.13;4876880;29;20253;-74
2022/10/24 08:58:06;;;;;;;5.90;1.20;;;;;;;18.07;64.20;100439.03;4892159;29;20050;-73
2022/10/24 09:00:43;;;;;;;7.18;1.33;;;;;;;18.46;62.99;100440.69;4886553;29;20024;-74
2022/10/24 09:03:38;;;;;;;6.20;1.20;;;;;;;18.61;62.64;100435.03;4890326;29;20380;-72
2022/10/24 09:06:15;;;;;;;5.35;1.15;;;;;;;18.70;62.32;100448.91;4907919;29;20032;-73
2022/10/24 09:08:53;;;;;;;5.90;1.15;;;;;;;17.87;64.70;100450.03;4897478;29;20321;-72
2022/10/24 09:11:24;;;;;;;6.72;1.27;;;;;;;18.55;63.38;100458.94;4891487;29;20567;-72
2022/10/24 09:13:50;;;;;;;6.75;1.42;;;;;;;18.51;62.89;100454.63;4894895;29;20031;-73
2022/10/24 09:16:20;;;;;;;5.72;1.40;;;;;;;18.44;63.19;100466.25;4888153;29;20401;-73
2022/10/24 09:18:47;;;;;;;6.47;1.02;;;;;;;18.55;62.84;100468.63;4888369;29;20032;-73
2022/10/24 09:21:14;;;;;;;6.80;1.30;;;;;;;18.69;62.63;100463.88;4888980;29;20537;-72
2022/10/24 09:23:40;;;;;;;6.53;1.17;;;;;;;18.89;62.27;100451.00;4889494;29;20036;-74
2022/10/24 09:26:12;;;;;;;7.32;1.33;;;;;;;18.44;63.41;100476.81;4890162;29;20024;-74
2022/10/24 09:28:38;;;;;;;6.32;1.27;;;;;;;18.97;62.29;100486.00;4885535;29;20422;-73
2022/10/24 09:31:15;;;;;;;8.38;1.60;;;;;;;18.62;63.28;100481.66;4891276;29;20036;-73
2022/10/24 09:33:41;;;;;;;7.15;1.55;;;;;;;18.82;62.46;100475.00;4889190;29;20550;-73
2022/10/24 09:36:10;;;;;;;10.55;1.83;;;;;;;18.68;62.79;100482.41;4894770;29;20052;-71
2022/10/24 09:38:38;;;;;;;7.07;1.42;;;;;;;18.95;62.29;100487.84;4883562;29;20068;-73
2022/10/24 09:41:05;;;;;;;12.05;1.60;;;;;;;18.67;62.82;100491.22;4894180;29;20028;-73
2022/10/24 09:43:38;;;;;;;7.55;1.23;;;;;;;18.73;62.73;100488.41;4892783;29;20135;-71
2022/10/24 09:46:15;;;;;;;8.02;1.60;;;;;;;18.63;63.77;100504.50;4890487;28;20091;-72
2022/10/24 09:48:55;;;;;;;8.10;1.55;;;;;;;18.58;63.55;100503.78;4887443;29;20151;-73
2022/10/24 09:51:29;;;;;;;6.13;1.20;;;;;;;19.01;62.62;100513.22;4884085;28;20056;-74
2022/10/24 09:54:19;;;;;;;7.07;1.42;;;;;;;19.16;62.72;100515.44;4891731;29;20044;-72
2022/10/24 09:57:09;;;;;;;6.40;1.55;;;;;;;19.14;62.03;100534.91;4884803;29;20083;-72
2022/10/24 09:59:43;;;;;;;6.32;1.33;;;;;;;19.37;62.12;100519.25;4887873;29;20158;-72
2022/10/24 10:02:18;;;;;;;7.20;1.60;;;;;;;19.71;61.30;100529.75;4893213;29;20101;-74
2022/10/24 10:04:57;;;;;;;7.75;1.35;;;;;;;19.69;60.55;100524.53;4886292;29;20044;-73
2022/10/24 10:07:28;;;;;;;6.32;1.75;;;;;;;19.62;60.92;100528.25;4892379;29;20028;-74
2022/10/24 10:10:04;;;;;;;7.68;1.45;;;;;;;19.36;61.05;100528.97;4889822;29;20052;-73
2022/10/24 10:12:40;;;;;;;6.95;1.70;;;;;;;19.65;61.57;100538.72;4897408;29;20511;-73
2022/10/24 10:15:26;;;;;;;8.48;1.80;;;;;;;19.30;60.95;100542.34;4894463;29;20051;-74
2022/10/24 10:17:55;;;;;;;6.25;1.30;;;;;;;19.38;60.91;100539.50;4897087;29;20043;-73
2022/10/24 10:20:27;;;;;;;6.93;1.20;;;;;;;19.62;60.28;100546.78;4889901;29;20448;-74
2022/10/24 10:22:52;;;;;;;8.57;1.60;;;;;;;19.60;60.70;100558.28;4893661;29;20556;-73
2022/10/24 10:25:30;;;;;;;7.72;1.35;;;;;;;19.51;61.00;100574.44;4896129;29;20032;-74
2022/10/24 10:27:57;;;;;;;8.35;1.73;;;;;;;19.81;60.29;100565.63;4889725;29;20508;-73
2022/10/24 10:30:23;;;;;;;6.65;1.80;;;;;;;19.49;60.88;100563.03;4885361;29;20040;-73
2022/10/24 10:33:05;;;;;;;7.32;1.60;;;;;;;19.54;60.53;100582.25;4884673;29;20485;-73
2022/10/24 10:35:36;;;;;;;8.45;1.40;;;;;;;19.63;61.15;100589.97;4894203;29;20047;-73
2022/10/24 10:38:07;;;;;;;5.13;1.50;;;;;;;19.08;62.00;100595.81;4891510;29;20175;-74
2022/10/24 10:40:43;;;;;;;7.20;1.73;;;;;;;19.45;61.50;100604.53;4891949;28;20626;-73
2022/10/24 10:43:34;;;;;;;6.95;1.52;;;;;;;19.43;61.54;100612.50;4890136;29;20060;-73
2022/10/24 10:46:28;;;;;;;5.85;1.70;;;;;;;19.26;62.07;100604.16;4883837;28;20338;-73
2022/10/24 10:48:56;;;;;;;8.23;1.40;;;;;;;19.49;62.05;100607.97;4903338;29;21013;-73
2022/10/24 10:51:42;;;;;;;5.35;1.52;;;;;;;18.96;63.54;100615.50;4901755;28;20441;-73
2022/10/24 10:54:07;;;;;;;6.45;1.20;;;;;;;19.48;61.66;100617.69;4884186;29;20134;-73
2022/10/24 10:56:44;;;;;;;7.07;1.30;;;;;;;19.01;62.84;100624.19;4888369;29;20508;-73
2022/10/24 10:59:12;;;;;;;5.32;1.30;;;;;;;18.75;63.93;100614.25;4886005;29;20028;-73
2022/10/24 11:01:37;;;;;;;5.05;1.52;;;;;;;18.83;63.78;100622.00;4907002;29;20556;-73
2022/10/24 11:04:20;;;;;;;5.80;1.60;;;;;;;18.35;65.34;100614.28;4892588;28;20521;-73
2022/10/24 11:06:55;;;;;;;5.63;1.50;;;;;;;18.39;65.12;100625.63;4891626;29;20039;-74
2022/10/24 11:09:30;;;;;;;3.22;1.10;;;;;;;18.74;64.63;100628.34;4884169;29;20290;-74
2022/10/24 11:12:21;;;;;;;4.40;1.20;;;;;;;19.38;62.68;100632.03;4888601;29;20072;-73
2022/10/24 11:15:24;;;;;;;3.45;1.15;;;;;;;19.06;62.80;100627.56;4890252;29;20107;-73
2022/10/24 11:18:26;;;;;;;3.83;1.20;;;;;;;19.54;62.50;100629.84;4893071;29;20116;-72
2022/10/24 11:21:08;;;;;;;6.93;1.52;;;;;;;19.29;62.40;100619.91;4886504;29;20136;-73
2022/10/24 11:23:45;;;;;;;9.15;2.00;;;;;;;19.05;63.48;100628.47;4883986;29;20119;-73
2022/10/24 11:26:33;;;;;;;7.07;1.70;;;;;;;19.10;63.55;100646.84;4883314;29;20042;-74
2022/10/24 11:29:22;;;;;;;4.82;1.70;;;;;;;19.15;63.43;100643.16;4895537;29;20040;-73
2022/10/24 11:32:18;;;;;;;6.80;1.80;;;;;;;19.10;63.58;100646.84;4902730;29;20505;-73
2022/10/24 11:34:52;;;;;;;5.45;1.70;;;;;;;19.33;63.16;100642.69;4878394;29;20062;-75